Weather observations for the past three days for
San Luis Valley Regional Airport
Metric (Imperial)
Date Time (mdt) Wind (kph) Vis. (km) Weather Sky Cond. Temperature (ºC) Relative Humidity Wind Chill (°C) Heat Index (°C) Pressure Precipitation (cm)
Air Dwpt 6 hour altimeter (cm) sea level (mb) 1 hr 3 hr 6 hr
Max. Min.
04 19:52 W 31 G 50 16.09 Fair CLR 13.3 -10 19% 75.92 1005.6
04 18:52 W 35 G 50 16.09 Fair and Breezy CLR 15 -8.3 19% 75.87 1005.1
04 17:52 SW 31 G 57 16.09 Fair CLR 16.7 -8.3 19.4 13.9 17% 75.87 1004.5
04 16:52 W 26 G 50 16.09 Fair CLR 18.3 -8.3 16% 75.87 1003.8
04 15:52 SW 28 G 50 16.09 A Few Clouds FEW095 18.9 -6.7 17% 75.9 1004.2
04 14:52 SW 31 G 44 16.09 Fair CLR 18.9 -6.7 17% 75.95 1004.6
04 13:52 N 13 16.09 A Few Clouds FEW085 17.2 -2.8 26% 76.02 1006.2
04 12:52 Calm 16.09 Fair CLR 16.1 -2.2 29% 76.07 1007.4
04 11:52 S 7 16.09 Fair CLR 13.9 -1.1 14.4 5 36% 76.17 1009.5
04 10:52 S 7 16.09 A Few Clouds FEW085 12.8 -0.6 40% 76.25 1011.1
04 09:52 Vrbl 6 16.09 A Few Clouds FEW100 11.7 -0.6 43% 76.3 1011.3
04 08:52 NW 6 16.09 A Few Clouds FEW100 10 0 50% 76.35 1012.0
04 07:52 W 6 16.09 A Few Clouds FEW070 8.3 -2.2 48% 76.38 1011.5
04 06:52 Calm 16.09 Mostly Cloudy BKN075 BKN095 5.6 -3.3 53% 76.33 1011.0
04 05:52 W 6 16.09 Mostly Cloudy BKN080 BKN095 6.7 -4.4 7.8 5.6 45% 76.28 1009.6
04 04:52 SE 6 16.09 Overcast BKN070 OVC085 6.7 -5 43% 76.3 1010.0
04 03:52 E 7 16.09 Mostly Cloudy SCT080 BKN110 6.7 -5.6 41% 6 76.25 1009.4
04 02:52 NE 7 16.09 Overcast FEW055 SCT070 OVC085 7.2 -6.7 37% 6 76.28 1009.6
04 01:52 Calm 16.09 Overcast BKN100 OVC110 7.2 -6.7 37% 76.28 1009.7
04 00:52 SW 9 16.09 Overcast OVC110 7.2 -5 42% 6 76.3 1009.8
03 23:52 W 7 16.09 A Few Clouds FEW120 5.6 -6.1 18.9 4.4 43% 4 76.3 1010.7
03 22:52 Vrbl 7 14.48 Fair CLR 5 -6.7 43% 4 76.3 1011.8
03 21:52 W 6 16.09 Fair CLR 8.3 -5.6 37% 76.33 1011.6
03 20:52 W 7 16.09 Fair CLR 9.4 -6.1 33% 9 76.28 1011.5
03 19:52 N 11 16.09 Mostly Cloudy BKN100 15 -6.1 23% 76.23 1010.4
03 18:52 NW 26 G 41 16.09 Mostly Cloudy BKN110 16.7 -7.2 19% 76.23 1011.5
03 17:52 W 22 G 44 16.09 Overcast OVC100 18.9 -7.2 20 15.6 16% 76.23 1011.1
03 16:52 Vrbl 9 16.09 Mostly Cloudy FEW080 BKN110 18.9 -8.3 15% 76.23 1010.7
03 15:52 Vrbl 11 16.09 A Few Clouds FEW110 18.3 -9.4 14% 76.28 1011.7
03 14:52 Vrbl 11 16.09 A Few Clouds FEW120 18.3 -9.4 14% 76.38 1012.9
03 13:52 Calm 16.09 Partly Cloudy SCT100 17.8 -9.4 15% 76.48 1014.4
03 12:52 S 19 G 35 16.09 A Few Clouds FEW100 17.8 -9.4 15% 76.56 1015.4
03 11:52 SW 11 16.09 Fair CLR 16.1 -9.4 16.1 -2.2 17% 76.66 1016.1
03 10:52 Vrbl 7 16.09 Fair CLR 13.9 -6.7 24% 76.71 1017.4
03 09:52 Vrbl 7 16.09 Fair CLR 11.1 -4.4 34% 76.76 1018.9
03 08:52 Vrbl 6 16.09 Fair CLR 8.9 -2.8 44% 76.81 1019.6
03 07:52 SE 6 16.09 Fair CLR 5 -1.1 65% 76.84 1019.9
03 06:52 E 7 16.09 Fair CLR -1.7 -4.4 82% -4 76.81 1020.3
03 05:52 NE 7 16.09 Fair CLR -2.2 -5 3.3 -2.8 81% -5 76.76 1019.6
03 04:52 E 13 16.09 Fair CLR -1.1 -5.6 72% -5 76.76 1018.9
03 03:52 E 11 16.09 Fair CLR -1.1 -6.7 66% -5 76.76 1019.4
03 02:52 E 13 16.09 Fair CLR -1.1 -10.6 49% -5 76.76 1019.7
03 01:52 NE 7 16.09 Fair CLR -0.6 -11.7 43% -3 76.76 1019.6
03 00:52 SE 11 16.09 Fair CLR 0 -8.9 52% -3 76.76 1019.8
02 23:52 S 9 16.09 Fair CLR 3.3 -8.3 15.6 3.3 43% 1 76.73 1019.2
02 22:52 S 11 16.09 Fair CLR 4.4 -10 35% 2 76.71 1019.3
02 21:52 S 9 16.09 Fair CLR 4.4 -12.2 29% 2 76.71 1019.7
02 20:52 SE 11 16.09 Fair CLR 6.1 -8.9 34% 4 76.66 1020.5
02 19:52 SE 11 16.09 Fair CLR 10 -11.1 22% 9 76.63 1019.1
02 18:52 E 9 16.09 Fair CLR 14.4 -12.8 14% 76.61 1018.0
02 17:52 E 9 16.09 Fair CLR 15.6 -13.9 16.7 9.4 12% 76.63 1018.0
02 16:52 E 7 16.09 Fair CLR 16.1 -12.8 13% 76.66 1018.5
02 15:52 S 9 16.09 Fair CLR 15.6 -12.2 14% 76.71 1019.6
02 14:52 Vrbl 7 16.09 Fair CLR 13.9 -10.6 17% 76.78 1021.0
02 13:52 Calm 16.09 Fair CLR 13.9 -9.4 19% 76.84 1021.3
02 12:52 Calm 16.09 Fair CLR 12.2 -8.9 22% 76.91 1022.7
02 11:52 Vrbl 9 16.09 Fair CLR 10 -6.1 10.6 -2.8 32% 9 76.96 1024.2
02 10:52 Calm 16.09 Fair CLR 7.8 -1.7 51% 77.01 1025.1
02 09:52 Vrbl 6 16.09 Fair CLR 5 0.6 73% 77.04 1025.7
02 08:52 Calm 16.09 Overcast OVC003 -0.6 -0.6 100% 77.06 1027.1
02 07:52 Calm 0.24 Freezing Fog VV002 -1.7 -2.2 96% 77.04 1027.0
02 06:52 S 6 0.24 Freezing Fog VV002 -2.2 -2.2 100% 77.01 1025.3
02 05:52 S 6 0.40 Freezing Fog VV002 -2.8 -2.8 -2.8 -6.7 100% 76.96 1024.0
02 04:52 Calm 0.40 Freezing Fog VV002 -4.4 -5 96% 76.94 1024.2
02 03:52 E 6 16.09 Fair CLR -5 -5 100% 76.89 1023.4
02 02:52 Calm 16.09 Fair CLR -3.9 -3.9 100% 76.89 1022.5
02 01:52 Calm 16.09 Fair CLR -3.3 -3.9 96% 76.86 1022.8
02 00:52 E 7 16.09 Fair CLR -2.8 -3.3 96% -5 76.84 1022.9
01 23:52 E 7 16.09 Fair CLR -2.2 -2.8 10.6 -2.8 96% -5 76.84 1022.5
01 22:52 SE 9 16.09 Fair CLR -1.1 -1.7 96% -4 76.81 1022.6
01 21:52 S 11 16.09 Fair CLR 0.6 -0.6 92% -2 76.78 1022.2
01 20:52 SW 11 16.09 Fair CLR 2.2 0 86% -1 76.71 1021.3
Date Time (mdt) Wind (kph) Vis. (km) Weather Sky Cond. Air Dwpt Max. Min. Relative Humidity Wind Chill (°C) Heat Index (°C) altimeter (cm) sea level (mb) 1 hr 3 hr 6 hr
6 hour
Temperature (ºC) Pressure Precipitation (cm)